• Join FlightAware (Why Join?)
  • Login
  • US Flag 
02:47PM EST


 

Airport Tracker/Info


-or-


 

Live Flight TrackerFlight Track Log ✈ KAP17 ✈ 09-May-2013 ✈ KBOS - KLEB

Flight Track Log - Related Links

Times and Time Zones

All times are in EDT time to prevent confusion due to time zone crossing. See the KAP17 flight status page for this flight to view local times or setup timezone preferences in your user account.

Time Position Orientation Groundspeed Altitude Reporting Facility
EDT Latitude Longitude Course Direction KTS MPH feet Rate Location/Type
09:06AM 42.3833 -71.0000 360° North 116 133 500  Level KA90
09:07AM 42.4000 -71.0000 360° North 120 138 1,400 1,020 Climbing KA90
09:08AM 42.4333 -71.0167 340° North 129 148 2,200 703 Climbing KA90
09:09AM 42.4667 -71.0000 20° North 138 159 2,900 738 Climbing KA90
09:10AM 42.5000 -71.0333 324° Northwest 141 162 3,700 804 Climbing KA90
09:11AM 42.5333 -71.0500 340° North 142 163 4,400 661 Climbing KA90
09:12AM 42.5667 -71.0833 324° Northwest 143 165 5,000 667 Climbing KA90
09:13AM 42.6000 -71.1167 324° Northwest 146 168 5,800 520 Climbing KA90
09:14AM 42.6500 -71.1500 334° Northwest 156 180 6,100 164 Climbing KA90
09:15AM 42.6833 -71.1833 324° Northwest 170 196 6,100  Level KA90
09:16AM 42.7167 -71.2167 324° Northwest 175 201 6,100  Level KA90
09:17AM 42.7500 -71.2667 312° West 176 203 6,100  Level KA90
09:18AM 42.8000 -71.3000 334° Northwest 177 204 6,100  Level KA90
09:19AM 42.8333 -71.3500 312° West 185 213 6,100  Level KA90
09:20AM 42.8667 -71.4000 312° West 176 203 6,100  Level KA90
09:21AM 42.9000 -71.4500 312° West 173 199 6,100  Level KA90
09:22AM 42.9333 -71.4833 324° Northwest 172 198 6,100  Level KA90
09:23AM 42.9667 -71.5500 304° West 171 197 6,100  Level KA90
09:24AM 43.0000 -71.6000 312° West 171 197 6,100  Level KA90
09:25AM 43.0333 -71.6500 312° West 171 197 6,100  Level KA90
09:26AM 43.0669 -71.6897 319° Northwest 174 200 6,100  Level Boston Center
09:27AM 43.0964 -71.7236 320° Northwest 223 257 6,100  Level Boston Center
09:28AM 43.1361 -71.7686 320° Northwest 185 213 6,100 -50 Level Boston Center
09:29AM 43.1719 -71.8081 321° Northwest 180 207 6,000  Descending Boston Center
09:30AM 43.2178 -71.8447 330° Northwest 173 199 6,100  Climbing Boston Center
09:31AM 43.2617 -71.8556 350° North 173 199 6,000  Descending Boston Center
09:32AM 43.3161 -71.8722 347° North 173 199 6,100 45 Climbing Boston Center
09:33AM 43.3597 -71.8833 350° North 178 205 6,100 -125 Level Boston Center
09:34AM 43.4244 -71.9028 348° North 184 212 5,800 -545 Descending Boston Center
09:35AM 43.4872 -71.9192 349° North 184 212 4,900 -450 Descending Boston Center
09:36AM 43.5392 -71.9331 349° North 184 212 4,900  Level Boston Center
09:37AM 43.5914 -71.9469 349° North 184 212 4,900  Level Boston Center
09:39AM 43.6436 -71.9608 349° North 184 212 4,900  Level Boston Center
09:40AM 43.6436 -71.9608 295° West 184 212 4,900  Level Boston Center
09:42AM 43.6436 -71.9608 295° West 184 212 4,900  Level Boston Center
09:44AM 43.6436 -71.9608 295° West 184 212 4,900  Level Boston Center